sensor_id;sensor_type;location;lat;lon;timestamp;pressure;altitude;pressure_sealevel;temperature;humidity
68376;BME280;55318;52.068;5.188;2022-11-15T00:00:16;100883.0;;;8.36;95.48
68376;BME280;55318;52.068;5.188;2022-11-15T00:01:53;100877.0;;;8.17;96.29
68376;BME280;55318;52.068;5.188;2022-11-15T00:05:06;100874.0;;;8.28;96.45
68376;BME280;55318;52.068;5.188;2022-11-15T00:06:42;100874.0;;;8.18;96.68
68376;BME280;55318;52.068;5.188;2022-11-15T00:08:19;100874.0;;;8.23;96.96
68376;BME280;55318;52.068;5.188;2022-11-15T00:11:32;100874.0;;;8.36;96.63
68376;BME280;55318;52.068;5.188;2022-11-15T00:13:09;100880.0;;;8.27;97.27
68376;BME280;55318;52.068;5.188;2022-11-15T00:14:46;100878.0;;;8.22;97.55
68376;BME280;55318;52.068;5.188;2022-11-15T00:17:59;100873.0;;;8.23;98.26
68376;BME280;55318;52.068;5.188;2022-11-15T00:19:35;100875.0;;;8.18;98.68
68376;BME280;55318;52.068;5.188;2022-11-15T00:21:13;100874.0;;;8.13;99.59
68376;BME280;55318;52.068;5.188;2022-11-15T00:22:52;100866.0;;;8.2;99.4
68376;BME280;55318;52.068;5.188;2022-11-15T00:26:05;100869.0;;;8.1;100.0
68376;BME280;55318;52.068;5.188;2022-11-15T00:27:41;100865.0;;;8.06;100.0
68376;BME280;55318;52.068;5.188;2022-11-15T00:29:17;100869.0;;;8.17;100.0
68376;BME280;55318;52.068;5.188;2022-11-15T00:32:35;100866.0;;;8.16;100.0
68376;BME280;55318;52.068;5.188;2022-11-15T00:34:11;100861.0;;;8.1;100.0
68376;BME280;55318;52.068;5.188;2022-11-15T00:35:47;100853.0;;;8.13;100.0
68376;BME280;55318;52.068;5.188;2022-11-15T00:37:23;100853.0;;;8.3;100.0
68376;BME280;55318;52.068;5.188;2022-11-15T00:40:35;100857.0;;;8.24;100.0
68376;BME280;55318;52.068;5.188;2022-11-15T00:42:11;100852.0;;;8.31;100.0
68376;BME280;55318;52.068;5.188;2022-11-15T00:43:48;100855.0;;;8.23;100.0
68376;BME280;55318;52.068;5.188;2022-11-15T00:47:01;100849.0;;;8.25;100.0
68376;BME280;55318;52.068;5.188;2022-11-15T00:48:37;100855.0;;;8.23;100.0
68376;BME280;55318;52.068;5.188;2022-11-15T00:50:13;100855.0;;;8.14;100.0
68376;BME280;55318;52.068;5.188;2022-11-15T00:53:27;100849.0;;;8.03;100.0
68376;BME280;55318;52.068;5.188;2022-11-15T00:55:04;100850.0;;;8.23;100.0
68376;BME280;55318;52.068;5.188;2022-11-15T00:56:40;100844.0;;;8.23;100.0
68376;BME280;55318;52.068;5.188;2022-11-15T00:59:52;100843.0;;;8.14;100.0
68376;BME280;55318;52.068;5.188;2022-11-15T01:01:29;100841.0;;;8.23;100.0
68376;BME280;55318;52.068;5.188;2022-11-15T01:03:05;100841.0;;;8.26;100.0
68376;BME280;55318;52.068;5.188;2022-11-15T01:04:41;100836.0;;;8.23;100.0
68376;BME280;55318;52.068;5.188;2022-11-15T01:07:54;100826.0;;;8.24;100.0
68376;BME280;55318;52.068;5.188;2022-11-15T01:09:31;100824.0;;;8.24;100.0
68376;BME280;55318;52.068;5.188;2022-11-15T01:11:10;100827.0;;;8.33;100.0
68376;BME280;55318;52.068;5.188;2022-11-15T01:14:23;100827.0;;;8.34;100.0
68376;BME280;55318;52.068;5.188;2022-11-15T01:16:04;100828.0;;;8.34;100.0
68376;BME280;55318;52.068;5.188;2022-11-15T01:17:41;100824.0;;;8.25;100.0
68376;BME280;55318;52.068;5.188;2022-11-15T01:19:17;100827.0;;;8.45;100.0
68376;BME280;55318;52.068;5.188;2022-11-15T01:22:30;100820.0;;;8.53;100.0
68376;BME280;55318;52.068;5.188;2022-11-15T01:24:07;100822.0;;;8.48;100.0
68376;BME280;55318;52.068;5.188;2022-11-15T01:25:44;100831.0;;;8.48;100.0
68376;BME280;55318;52.068;5.188;2022-11-15T01:28:56;100828.0;;;8.61;100.0
68376;BME280;55318;52.068;5.188;2022-11-15T01:30:32;100825.0;;;8.56;100.0
68376;BME280;55318;52.068;5.188;2022-11-15T01:32:09;100824.0;;;8.6;100.0
68376;BME280;55318;52.068;5.188;2022-11-15T01:35:23;100824.0;;;8.67;100.0
68376;BME280;55318;52.068;5.188;2022-11-15T01:36:59;100816.0;;;8.71;100.0
68376;BME280;55318;52.068;5.188;2022-11-15T01:38:36;100815.0;;;8.69;100.0
68376;BME280;55318;52.068;5.188;2022-11-15T01:40:13;100812.0;;;8.69;100.0
68376;BME280;55318;52.068;5.188;2022-11-15T01:43:29;100812.0;;;8.78;100.0
68376;BME280;55318;52.068;5.188;2022-11-15T01:46:51;100807.0;;;8.67;100.0
68376;BME280;55318;52.068;5.188;2022-11-15T01:50:11;100807.0;;;8.84;100.0
68376;BME280;55318;52.068;5.188;2022-11-15T01:51:51;100805.0;;;8.9;100.0
68376;BME280;55318;52.068;5.188;2022-11-15T01:53:29;100812.0;;;8.89;100.0
68376;BME280;55318;52.068;5.188;2022-11-15T01:55:10;100813.0;;;8.83;100.0
68376;BME280;55318;52.068;5.188;2022-11-15T01:58:31;100807.0;;;8.85;100.0
68376;BME280;55318;52.068;5.188;2022-11-15T02:00:08;100805.0;;;8.86;100.0
68376;BME280;55318;52.068;5.188;2022-11-15T02:01:46;100800.0;;;8.98;100.0
68376;BME280;55318;52.068;5.188;2022-11-15T02:03:28;100797.0;;;8.99;100.0
68376;BME280;55318;52.068;5.188;2022-11-15T02:06:46;100793.0;;;9.07;100.0
68376;BME280;55318;52.068;5.188;2022-11-15T02:08:24;100789.0;;;9.11;100.0
68376;BME280;55318;52.068;5.188;2022-11-15T02:10:05;100786.0;;;9.09;100.0
68376;BME280;55318;52.068;5.188;2022-11-15T02:11:46;100784.0;;;9.22;100.0
68376;BME280;55318;52.068;5.188;2022-11-15T02:15:02;100777.0;;;9.22;100.0
68376;BME280;55318;52.068;5.188;2022-11-15T02:16:47;100774.0;;;9.28;100.0
68376;BME280;55318;52.068;5.188;2022-11-15T02:18:35;100772.0;;;9.31;100.0
68376;BME280;55318;52.068;5.188;2022-11-15T02:20:53;100767.0;;;9.33;100.0
68376;BME280;55318;52.068;5.188;2022-11-15T02:22:40;100764.0;;;9.33;100.0
68376;BME280;55318;52.068;5.188;2022-11-15T02:24:36;100764.0;;;9.35;100.0
68376;BME280;55318;52.068;5.188;2022-11-15T02:26:57;100759.0;;;9.4;100.0
68376;BME280;55318;52.068;5.188;2022-11-15T02:28:49;100755.0;;;9.42;100.0
68376;BME280;55318;52.068;5.188;2022-11-15T02:30:40;100752.0;;;9.47;100.0
68376;BME280;55318;52.068;5.188;2022-11-15T02:34:05;100751.0;;;9.42;100.0
68376;BME280;55318;52.068;5.188;2022-11-15T02:35:54;100744.0;;;9.52;100.0
68376;BME280;55318;52.068;5.188;2022-11-15T02:37:40;100747.0;;;9.56;100.0
68376;BME280;55318;52.068;5.188;2022-11-15T02:39:25;100741.0;;;9.61;100.0
68376;BME280;55318;52.068;5.188;2022-11-15T02:41:10;100739.0;;;9.64;100.0
68376;BME280;55318;52.068;5.188;2022-11-15T02:45:51;100730.0;;;9.65;100.0
68376;BME280;55318;52.068;5.188;2022-11-15T02:47:35;100726.0;;;9.65;100.0
68376;BME280;55318;52.068;5.188;2022-11-15T02:49:18;100725.0;;;9.72;100.0
68376;BME280;55318;52.068;5.188;2022-11-15T02:52:32;100721.0;;;9.8;100.0
68376;BME280;55318;52.068;5.188;2022-11-15T02:54:12;100717.0;;;9.71;100.0
68376;BME280;55318;52.068;5.188;2022-11-15T02:55:51;100714.0;;;9.71;100.0
68376;BME280;55318;52.068;5.188;2022-11-15T02:59:34;100714.0;;;9.83;100.0
68376;BME280;55318;52.068;5.188;2022-11-15T03:01:37;100715.0;;;9.83;100.0
68376;BME280;55318;52.068;5.188;2022-11-15T03:03:29;100720.0;;;9.92;100.0
68376;BME280;55318;52.068;5.188;2022-11-15T03:05:22;100722.0;;;9.92;100.0
68376;BME280;55318;52.068;5.188;2022-11-15T03:07:08;100726.0;;;9.93;100.0
68376;BME280;55318;52.068;5.188;2022-11-15T03:08:56;100720.0;;;9.89;100.0
68376;BME280;55318;52.068;5.188;2022-11-15T03:10:42;100721.0;;;10.02;100.0
68376;BME280;55318;52.068;5.188;2022-11-15T03:12:28;100720.0;;;9.98;100.0
68376;BME280;55318;52.068;5.188;2022-11-15T03:16:03;100720.0;;;9.98;100.0
68376;BME280;55318;52.068;5.188;2022-11-15T03:17:45;100721.0;;;10.03;100.0
68376;BME280;55318;52.068;5.188;2022-11-15T03:19:30;100721.0;;;10.23;100.0
68376;BME280;55318;52.068;5.188;2022-11-15T03:21:12;100721.0;;;10.18;100.0
68376;BME280;55318;52.068;5.188;2022-11-15T03:22:51;100720.0;;;10.17;100.0
68376;BME280;55318;52.068;5.188;2022-11-15T03:26:14;100720.0;;;10.24;100.0
68376;BME280;55318;52.068;5.188;2022-11-15T03:27:54;100727.0;;;10.31;100.0
68376;BME280;55318;52.068;5.188;2022-11-15T03:29:36;100727.0;;;10.37;100.0
68376;BME280;55318;52.068;5.188;2022-11-15T03:31:49;100719.0;;;10.42;100.0
68376;BME280;55318;52.068;5.188;2022-11-15T03:34:02;100722.0;;;10.51;100.0
68376;BME280;55318;52.068;5.188;2022-11-15T03:35:44;100718.0;;;10.71;100.0
68376;BME280;55318;52.068;5.188;2022-11-15T03:37:24;100724.0;;;10.71;100.0
68376;BME280;55318;52.068;5.188;2022-11-15T03:40:49;100724.0;;;10.85;100.0
68376;BME280;55318;52.068;5.188;2022-11-15T03:42:32;100722.0;;;11.01;100.0
68376;BME280;55318;52.068;5.188;2022-11-15T03:44:16;100715.0;;;11.02;100.0
68376;BME280;55318;52.068;5.188;2022-11-15T03:46:01;100722.0;;;11.14;100.0
68376;BME280;55318;52.068;5.188;2022-11-15T03:49:22;100722.0;;;11.15;100.0
68376;BME280;55318;52.068;5.188;2022-11-15T03:51:02;100723.0;;;11.3;100.0
68376;BME280;55318;52.068;5.188;2022-11-15T03:52:41;100719.0;;;11.3;100.0
68376;BME280;55318;52.068;5.188;2022-11-15T03:54:18;100720.0;;;11.43;100.0
68376;BME280;55318;52.068;5.188;2022-11-15T03:57:31;100720.0;;;11.44;100.0
68376;BME280;55318;52.068;5.188;2022-11-15T03:59:07;100710.0;;;11.56;99.83
68376;BME280;55318;52.068;5.188;2022-11-15T04:00:43;100712.0;;;11.63;99.78
68376;BME280;55318;52.068;5.188;2022-11-15T04:03:55;100707.0;;;11.69;99.42
68376;BME280;55318;52.068;5.188;2022-11-15T04:05:31;100711.0;;;11.54;99.77
68376;BME280;55318;52.068;5.188;2022-11-15T04:07:07;100711.0;;;11.52;100.0
68376;BME280;55318;52.068;5.188;2022-11-15T04:08:43;100712.0;;;11.56;100.0
68376;BME280;55318;52.068;5.188;2022-11-15T04:11:56;100711.0;;;11.52;100.0
68376;BME280;55318;52.068;5.188;2022-11-15T04:13:32;100709.0;;;11.54;100.0
68376;BME280;55318;52.068;5.188;2022-11-15T04:15:10;100705.0;;;11.59;100.0
68376;BME280;55318;52.068;5.188;2022-11-15T04:18:24;100708.0;;;11.57;100.0
68376;BME280;55318;52.068;5.188;2022-11-15T04:24:14;100698.0;;;11.42;100.0
68376;BME280;55318;52.068;5.188;2022-11-15T04:25:52;100696.0;;;11.42;100.0
68376;BME280;55318;52.068;5.188;2022-11-15T04:29:38;100695.0;;;11.44;100.0
68376;BME280;55318;52.068;5.188;2022-11-15T04:31:14;100689.0;;;11.41;100.0
68376;BME280;55318;52.068;5.188;2022-11-15T04:32:50;100690.0;;;11.37;100.0
68376;BME280;55318;52.068;5.188;2022-11-15T04:34:27;100692.0;;;11.51;100.0
68376;BME280;55318;52.068;5.188;2022-11-15T04:37:20;100693.0;;;11.59;100.0
68376;BME280;55318;52.068;5.188;2022-11-15T04:38:58;100694.0;;;11.61;100.0
68376;BME280;55318;52.068;5.188;2022-11-15T04:40:35;100696.0;;;11.52;100.0
68376;BME280;55318;52.068;5.188;2022-11-15T04:42:12;100692.0;;;11.52;100.0
68376;BME280;55318;52.068;5.188;2022-11-15T04:45:25;100693.0;;;11.64;100.0
68376;BME280;55318;52.068;5.188;2022-11-15T04:47:01;100699.0;;;11.54;100.0
68376;BME280;55318;52.068;5.188;2022-11-15T04:48:38;100700.0;;;11.44;100.0
68376;BME280;55318;52.068;5.188;2022-11-15T04:51:53;100703.0;;;11.46;100.0
68376;BME280;55318;52.068;5.188;2022-11-15T04:53:28;100699.0;;;11.48;100.0
68376;BME280;55318;52.068;5.188;2022-11-15T04:55:05;100694.0;;;11.47;100.0
68376;BME280;55318;52.068;5.188;2022-11-15T04:58:18;100698.0;;;11.5;100.0
68376;BME280;55318;52.068;5.188;2022-11-15T04:59:54;100697.0;;;11.52;100.0
68376;BME280;55318;52.068;5.188;2022-11-15T05:01:30;100705.0;;;11.6;100.0
68376;BME280;55318;52.068;5.188;2022-11-15T05:04:23;100707.0;;;11.81;100.0
68376;BME280;55318;52.068;5.188;2022-11-15T05:06:00;100703.0;;;11.76;100.0
68376;BME280;55318;52.068;5.188;2022-11-15T05:07:36;100705.0;;;11.73;100.0
68376;BME280;55318;52.068;5.188;2022-11-15T05:10:49;100702.0;;;11.83;100.0
68376;BME280;55318;52.068;5.188;2022-11-15T05:12:25;100705.0;;;11.71;100.0
68376;BME280;55318;52.068;5.188;2022-11-15T05:14:02;100710.0;;;11.71;100.0
68376;BME280;55318;52.068;5.188;2022-11-15T05:15:38;100707.0;;;11.89;100.0
68376;BME280;55318;52.068;5.188;2022-11-15T05:18:50;100708.0;;;11.89;100.0
68376;BME280;55318;52.068;5.188;2022-11-15T05:20:27;100705.0;;;11.91;100.0
68376;BME280;55318;52.068;5.188;2022-11-15T05:22:03;100706.0;;;11.96;100.0
68376;BME280;55318;52.068;5.188;2022-11-15T05:25:17;100703.0;;;12.0;100.0
68376;BME280;55318;52.068;5.188;2022-11-15T05:26:53;100705.0;;;12.04;100.0
68376;BME280;55318;52.068;5.188;2022-11-15T05:28:29;100709.0;;;12.11;100.0
68376;BME280;55318;52.068;5.188;2022-11-15T05:31:43;100705.0;;;12.04;100.0
68376;BME280;55318;52.068;5.188;2022-11-15T05:33:19;100705.0;;;12.12;99.96
68376;BME280;55318;52.068;5.188;2022-11-15T05:34:56;100713.0;;;12.16;99.65
68376;BME280;55318;52.068;5.188;2022-11-15T05:38:13;100708.0;;;12.26;99.7
68376;BME280;55318;52.068;5.188;2022-11-15T05:39:49;100708.0;;;12.21;99.52
68376;BME280;55318;52.068;5.188;2022-11-15T05:41:29;100709.0;;;12.31;98.82
68376;BME280;55318;52.068;5.188;2022-11-15T05:43:09;100712.0;;;12.32;98.82
68376;BME280;55318;52.068;5.188;2022-11-15T05:48:06;100720.0;;;12.33;99.06
68376;BME280;55318;52.068;5.188;2022-11-15T05:49:45;100718.0;;;12.44;98.47
68376;BME280;55318;52.068;5.188;2022-11-15T05:51:23;100720.0;;;12.6;97.72
68376;BME280;55318;52.068;5.188;2022-11-15T05:54:38;100715.0;;;12.7;96.98
68376;BME280;55318;52.068;5.188;2022-11-15T05:56:15;100714.0;;;12.7;97.17
68376;BME280;55318;52.068;5.188;2022-11-15T05:57:52;100717.0;;;12.53;97.72
68376;BME280;55318;52.068;5.188;2022-11-15T06:01:06;100717.0;;;12.54;97.88
68376;BME280;55318;52.068;5.188;2022-11-15T06:02:42;100720.0;;;12.45;98.41
68376;BME280;55318;52.068;5.188;2022-11-15T06:04:18;100724.0;;;12.45;98.72
68376;BME280;55318;52.068;5.188;2022-11-15T06:05:56;100722.0;;;12.51;98.35
68376;BME280;55318;52.068;5.188;2022-11-15T06:09:09;100719.0;;;12.61;97.78
68376;BME280;55318;52.068;5.188;2022-11-15T06:10:45;100721.0;;;12.69;97.33
68376;BME280;55318;52.068;5.188;2022-11-15T06:12:21;100718.0;;;12.73;97.45
68376;BME280;55318;52.068;5.188;2022-11-15T06:15:33;100720.0;;;12.76;97.4
68376;BME280;55318;52.068;5.188;2022-11-15T06:17:10;100719.0;;;12.62;97.62
68376;BME280;55318;52.068;5.188;2022-11-15T06:18:47;100723.0;;;12.63;97.75
68376;BME280;55318;52.068;5.188;2022-11-15T06:21:59;100732.0;;;12.49;98.54
68376;BME280;55318;52.068;5.188;2022-11-15T06:23:35;100730.0;;;12.62;97.91
68376;BME280;55318;52.068;5.188;2022-11-15T06:25:12;100732.0;;;12.47;98.89
68376;BME280;55318;52.068;5.188;2022-11-15T06:26:48;100736.0;;;12.45;99.32
68376;BME280;55318;52.068;5.188;2022-11-15T06:30:00;100741.0;;;12.42;99.46
68376;BME280;55318;52.068;5.188;2022-11-15T06:31:36;100742.0;;;12.44;99.56
68376;BME280;55318;52.068;5.188;2022-11-15T06:33:12;100742.0;;;12.44;99.46
68376;BME280;55318;52.068;5.188;2022-11-15T06:36:24;100738.0;;;12.41;99.42
68376;BME280;55318;52.068;5.188;2022-11-15T06:38:03;100736.0;;;12.51;98.95
68376;BME280;55318;52.068;5.188;2022-11-15T06:39:40;100738.0;;;12.49;98.89
68376;BME280;55318;52.068;5.188;2022-11-15T06:42:57;100744.0;;;12.5;99.05
68376;BME280;55318;52.068;5.188;2022-11-15T06:44:34;100744.0;;;12.43;99.13
68376;BME280;55318;52.068;5.188;2022-11-15T06:46:10;100741.0;;;12.48;99.14
68376;BME280;55318;52.068;5.188;2022-11-15T06:47:46;100746.0;;;12.53;98.74
68376;BME280;55318;52.068;5.188;2022-11-15T06:51:00;100745.0;;;12.56;98.44
68376;BME280;55318;52.068;5.188;2022-11-15T06:52:39;100752.0;;;12.49;98.45
68376;BME280;55318;52.068;5.188;2022-11-15T06:54:15;100753.0;;;12.53;98.5
68376;BME280;55318;52.068;5.188;2022-11-15T06:57:28;100758.0;;;12.51;98.6
68376;BME280;55318;52.068;5.188;2022-11-15T06:59:04;100758.0;;;12.7;97.53
68376;BME280;55318;52.068;5.188;2022-11-15T07:00:40;100764.0;;;12.49;98.37
68376;BME280;55318;52.068;5.188;2022-11-15T07:03:54;100763.0;;;12.48;98.91
68376;BME280;55318;52.068;5.188;2022-11-15T07:05:30;100767.0;;;12.44;99.04
68376;BME280;55318;52.068;5.188;2022-11-15T07:07:07;100767.0;;;12.43;99.17
68376;BME280;55318;52.068;5.188;2022-11-15T07:08:43;100766.0;;;12.32;99.82
68376;BME280;55318;52.068;5.188;2022-11-15T07:11:57;100771.0;;;12.34;99.3
68376;BME280;55318;52.068;5.188;2022-11-15T07:13:34;100770.0;;;12.42;99.21
68376;BME280;55318;52.068;5.188;2022-11-15T07:15:11;100769.0;;;12.33;99.49
68376;BME280;55318;52.068;5.188;2022-11-15T07:18:23;100766.0;;;12.35;99.83
68376;BME280;55318;52.068;5.188;2022-11-15T07:19:59;100769.0;;;12.47;99.27
68376;BME280;55318;52.068;5.188;2022-11-15T07:21:36;100771.0;;;12.38;99.33
68376;BME280;55318;52.068;5.188;2022-11-15T07:24:49;100771.0;;;12.48;98.71
68376;BME280;55318;52.068;5.188;2022-11-15T07:26:25;100775.0;;;12.37;98.96
68376;BME280;55318;52.068;5.188;2022-11-15T07:28:01;100775.0;;;12.37;99.34
68376;BME280;55318;52.068;5.188;2022-11-15T07:29:38;100776.0;;;12.45;99.13
68376;BME280;55318;52.068;5.188;2022-11-15T07:32:52;100780.0;;;12.46;98.79
68376;BME280;55318;52.068;5.188;2022-11-15T07:34:30;100774.0;;;12.45;98.74
68376;BME280;55318;52.068;5.188;2022-11-15T07:36:07;100776.0;;;12.38;98.92
68376;BME280;55318;52.068;5.188;2022-11-15T07:39:29;100772.0;;;12.37;98.87
68376;BME280;55318;52.068;5.188;2022-11-15T07:41:06;100761.0;;;12.27;99.47
68376;BME280;55318;52.068;5.188;2022-11-15T07:42:59;100758.0;;;12.23;99.45
68376;BME280;55318;52.068;5.188;2022-11-15T07:44:35;100755.0;;;12.15;99.85
68376;BME280;55318;52.068;5.188;2022-11-15T07:47:48;100753.0;;;12.09;100.0
68376;BME280;55318;52.068;5.188;2022-11-15T07:49:25;100756.0;;;11.98;100.0
68376;BME280;55318;52.068;5.188;2022-11-15T07:51:01;100759.0;;;12.03;100.0
68376;BME280;55318;52.068;5.188;2022-11-15T07:52:38;100763.0;;;12.06;100.0
68376;BME280;55318;52.068;5.188;2022-11-15T07:55:50;100763.0;;;12.17;99.47
68376;BME280;55318;52.068;5.188;2022-11-15T07:57:27;100762.0;;;12.14;99.65
68376;BME280;55318;52.068;5.188;2022-11-15T07:59:03;100764.0;;;12.17;99.49
68376;BME280;55318;52.068;5.188;2022-11-15T08:02:17;100766.0;;;12.12;99.53
68376;BME280;55318;52.068;5.188;2022-11-15T08:03:54;100762.0;;;12.13;99.79
68376;BME280;55318;52.068;5.188;2022-11-15T08:05:30;100756.0;;;12.11;100.0
68376;BME280;55318;52.068;5.188;2022-11-15T08:08:43;100755.0;;;12.04;100.0
68376;BME280;55318;52.068;5.188;2022-11-15T08:10:20;100751.0;;;12.01;100.0
68376;BME280;55318;52.068;5.188;2022-11-15T08:11:56;100749.0;;;11.91;100.0
68376;BME280;55318;52.068;5.188;2022-11-15T08:13:32;100751.0;;;11.94;100.0
68376;BME280;55318;52.068;5.188;2022-11-15T08:16:45;100753.0;;;12.08;100.0
68376;BME280;55318;52.068;5.188;2022-11-15T08:18:22;100752.0;;;11.97;100.0
68376;BME280;55318;52.068;5.188;2022-11-15T08:19:58;100752.0;;;12.03;100.0
68376;BME280;55318;52.068;5.188;2022-11-15T08:23:11;100752.0;;;12.04;100.0
68376;BME280;55318;52.068;5.188;2022-11-15T08:24:48;100744.0;;;11.98;100.0
68376;BME280;55318;52.068;5.188;2022-11-15T08:26:26;100748.0;;;12.16;99.79
68376;BME280;55318;52.068;5.188;2022-11-15T08:29:43;100752.0;;;12.0;100.0
68376;BME280;55318;52.068;5.188;2022-11-15T08:31:20;100748.0;;;12.01;100.0
68376;BME280;55318;52.068;5.188;2022-11-15T08:32:57;100741.0;;;12.01;100.0
68376;BME280;55318;52.068;5.188;2022-11-15T08:34:34;100739.0;;;12.09;100.0
68376;BME280;55318;52.068;5.188;2022-11-15T08:37:52;100740.0;;;12.24;99.6
68376;BME280;55318;52.068;5.188;2022-11-15T08:39:29;100735.0;;;12.26;99.26
68376;BME280;55318;52.068;5.188;2022-11-15T08:41:06;100734.0;;;12.08;99.49
68376;BME280;55318;52.068;5.188;2022-11-15T08:44:22;100725.0;;;12.18;99.45
68376;BME280;55318;52.068;5.188;2022-11-15T08:45:58;100723.0;;;12.11;98.99
68376;BME280;55318;52.068;5.188;2022-11-15T08:47:35;100724.0;;;12.21;98.8
68376;BME280;55318;52.068;5.188;2022-11-15T08:49:11;100724.0;;;12.2;98.57
68376;BME280;55318;52.068;5.188;2022-11-15T08:52:23;100722.0;;;12.25;98.26
68376;BME280;55318;52.068;5.188;2022-11-15T08:53:59;100714.0;;;12.32;97.98
68376;BME280;55318;52.068;5.188;2022-11-15T08:55:36;100718.0;;;12.29;97.84
68376;BME280;55318;52.068;5.188;2022-11-15T08:58:51;100721.0;;;12.39;97.57
68376;BME280;55318;52.068;5.188;2022-11-15T09:00:27;100721.0;;;12.52;96.93
68376;BME280;55318;52.068;5.188;2022-11-15T09:02:03;100725.0;;;12.77;95.96
68376;BME280;55318;52.068;5.188;2022-11-15T09:03:40;100725.0;;;13.0;94.59
68376;BME280;55318;52.068;5.188;2022-11-15T09:06:55;100727.0;;;12.92;93.65
68376;BME280;55318;52.068;5.188;2022-11-15T09:08:31;100730.0;;;12.91;93.21
68376;BME280;55318;52.068;5.188;2022-11-15T09:10:08;100724.0;;;12.98;93.35
68376;BME280;55318;52.068;5.188;2022-11-15T09:13:20;100722.0;;;13.03;93.38
68376;BME280;55318;52.068;5.188;2022-11-15T09:14:58;100720.0;;;12.98;92.3
68376;BME280;55318;52.068;5.188;2022-11-15T09:16:34;100712.0;;;13.15;92.07
68376;BME280;55318;52.068;5.188;2022-11-15T09:19:46;100711.0;;;13.16;91.48
68376;BME280;55318;52.068;5.188;2022-11-15T09:21:21;100713.0;;;13.28;91.17
68376;BME280;55318;52.068;5.188;2022-11-15T09:22:59;100709.0;;;13.46;90.21
68376;BME280;55318;52.068;5.188;2022-11-15T09:24:35;100714.0;;;13.38;89.38
68376;BME280;55318;52.068;5.188;2022-11-15T09:27:49;100706.0;;;13.33;89.68
68376;BME280;55318;52.068;5.188;2022-11-15T09:29:25;100701.0;;;13.25;90.0
68376;BME280;55318;52.068;5.188;2022-11-15T09:31:04;100705.0;;;13.22;89.37
68376;BME280;55318;52.068;5.188;2022-11-15T09:34:18;100702.0;;;13.08;90.29
68376;BME280;55318;52.068;5.188;2022-11-15T09:35:54;100701.0;;;13.14;89.15
68376;BME280;55318;52.068;5.188;2022-11-15T09:37:35;100693.0;;;13.19;88.06
68376;BME280;55318;52.068;5.188;2022-11-15T09:40:51;100690.0;;;13.13;88.92
68376;BME280;55318;52.068;5.188;2022-11-15T09:42:52;100692.0;;;13.34;88.68
68376;BME280;55318;52.068;5.188;2022-11-15T09:44:45;100697.0;;;13.33;87.56
68376;BME280;55318;52.068;5.188;2022-11-15T09:46:31;100701.0;;;13.28;87.75
68376;BME280;55318;52.068;5.188;2022-11-15T09:48:33;100703.0;;;13.1;88.37
68376;BME280;55318;52.068;5.188;2022-11-15T09:50:31;100700.0;;;13.1;88.7
68376;BME280;55318;52.068;5.188;2022-11-15T09:52:11;100705.0;;;13.32;87.72
68376;BME280;55318;52.068;5.188;2022-11-15T09:55:38;100706.0;;;13.24;86.47
68376;BME280;55318;52.068;5.188;2022-11-15T09:57:39;100705.0;;;13.36;86.59
68376;BME280;55318;52.068;5.188;2022-11-15T09:59:27;100705.0;;;13.16;85.33
68376;BME280;55318;52.068;5.188;2022-11-15T10:01:41;100702.0;;;13.08;86.68
68376;BME280;55318;52.068;5.188;2022-11-15T10:03:28;100701.0;;;13.04;86.4
68376;BME280;55318;52.068;5.188;2022-11-15T10:05:12;100700.0;;;13.21;86.25
68376;BME280;55318;52.068;5.188;2022-11-15T10:06:57;100707.0;;;13.11;85.85
68376;BME280;55318;52.068;5.188;2022-11-15T10:08:52;100695.0;;;13.03;86.0
68376;BME280;55318;52.068;5.188;2022-11-15T10:12:15;100691.0;;;12.95;86.72
68376;BME280;55318;52.068;5.188;2022-11-15T10:13:55;100683.0;;;12.91;86.77
68376;BME280;55318;52.068;5.188;2022-11-15T10:15:35;100680.0;;;13.06;86.31
68376;BME280;55318;52.068;5.188;2022-11-15T10:17:31;100681.0;;;13.32;86.3
68376;BME280;55318;52.068;5.188;2022-11-15T10:20:13;100678.0;;;13.44;85.34
68376;BME280;55318;52.068;5.188;2022-11-15T10:22:00;100677.0;;;13.57;84.19
68376;BME280;55318;52.068;5.188;2022-11-15T10:23:44;100675.0;;;13.47;83.88
68376;BME280;55318;52.068;5.188;2022-11-15T10:25:23;100668.0;;;13.26;84.61
68376;BME280;55318;52.068;5.188;2022-11-15T10:28:37;100663.0;;;13.23;84.78
68376;BME280;55318;52.068;5.188;2022-11-15T10:30:16;100666.0;;;13.24;84.42
68376;BME280;55318;52.068;5.188;2022-11-15T10:31:53;100661.0;;;13.14;84.99
68376;BME280;55318;52.068;5.188;2022-11-15T10:35:26;100663.0;;;13.26;84.77
68376;BME280;55318;52.068;5.188;2022-11-15T10:37:03;100659.0;;;13.08;84.73
68376;BME280;55318;52.068;5.188;2022-11-15T10:38:52;100661.0;;;13.19;84.11
68376;BME280;55318;52.068;5.188;2022-11-15T10:40:29;100661.0;;;13.26;83.77
68376;BME280;55318;52.068;5.188;2022-11-15T10:42:26;100652.0;;;13.19;82.34
68376;BME280;55318;52.068;5.188;2022-11-15T10:46:19;100641.0;;;13.2;83.54
68376;BME280;55318;52.068;5.188;2022-11-15T10:48:20;100634.0;;;13.27;82.99
68376;BME280;55318;52.068;5.188;2022-11-15T10:50:03;100648.0;;;13.4;81.74
68376;BME280;55318;52.068;5.188;2022-11-15T10:51:45;100636.0;;;13.38;81.44
68376;BME280;55318;52.068;5.188;2022-11-15T10:53:29;100630.0;;;13.37;81.02
68376;BME280;55318;52.068;5.188;2022-11-15T10:55:22;100627.0;;;13.53;81.69
68376;BME280;55318;52.068;5.188;2022-11-15T10:57:05;100630.0;;;13.31;80.63
68376;BME280;55318;52.068;5.188;2022-11-15T10:58:50;100634.0;;;13.25;80.63
68376;BME280;55318;52.068;5.188;2022-11-15T11:02:27;100627.0;;;13.44;80.24
68376;BME280;55318;52.068;5.188;2022-11-15T11:04:11;100627.0;;;13.58;79.73
68376;BME280;55318;52.068;5.188;2022-11-15T11:05:47;100619.0;;;13.66;79.47
68376;BME280;55318;52.068;5.188;2022-11-15T11:07:25;100618.0;;;13.61;79.03
68376;BME280;55318;52.068;5.188;2022-11-15T11:10:52;100612.0;;;13.71;78.42
68376;BME280;55318;52.068;5.188;2022-11-15T11:12:31;100613.0;;;13.53;77.95
68376;BME280;55318;52.068;5.188;2022-11-15T11:14:12;100610.0;;;13.46;78.44
68376;BME280;55318;52.068;5.188;2022-11-15T11:15:53;100610.0;;;13.42;77.48
68376;BME280;55318;52.068;5.188;2022-11-15T11:17:56;100608.0;;;13.36;77.95